Time;durP1;ratioP1;P1;durP2;ratioP2;P2;SDS_P1;SDS_P2;PMS_P1;PMS_P2;Temp;Humidity;BMP_temperature;BMP_pressure;BME280_temperature;BME280_humidity;BME280_pressure;Samples;Min_cycle;Max_cycle;Signal;HPM_P1;HPM_P2
2023/02/14 00:00:41;;;;;;;29.02;16.45;;;;;;;-0.86;100.00;103583.59;5112618;28;20030;-75
2023/02/14 00:03:07;;;;;;;33.85;17.00;;;;;;;-0.87;100.00;103576.63;5114301;28;20034;-74
2023/02/14 00:05:32;;;;;;;34.33;18.23;;;;;;;-0.88;100.00;103583.59;5114209;28;20494;-74
2023/02/14 00:07:58;;;;;;;33.53;17.20;;;;;;;-0.93;100.00;103580.94;5113807;28;20122;-74
2023/02/14 00:10:23;;;;;;;30.55;17.77;;;;;;;-0.96;100.00;103582.69;5112961;28;20039;-74
2023/02/14 00:12:48;;;;;;;28.60;15.68;;;;;;;-1.00;100.00;103574.00;5113752;28;20536;-74
2023/02/14 00:15:23;;;;;;;33.35;17.63;;;;;;;-1.04;100.00;103572.22;5114255;28;20071;-74
2023/02/14 00:17:50;;;;;;;28.55;16.65;;;;;;;-1.06;100.00;103571.34;5113668;28;20019;-74
2023/02/14 00:20:16;;;;;;;30.75;16.88;;;;;;;-1.06;100.00;103571.34;5113869;28;20052;-74
2023/02/14 00:22:41;;;;;;;29.92;15.82;;;;;;;-1.07;100.00;103572.22;5112296;28;20422;-74
2023/02/14 00:25:07;;;;;;;30.67;16.42;;;;;;;-1.09;100.00;103571.34;5113817;28;20492;-74
2023/02/14 00:27:32;;;;;;;33.20;17.48;;;;;;;-1.13;100.00;103569.59;5114122;28;20447;-74
2023/02/14 00:30:00;;;;;;;32.85;16.95;;;;;;;-1.17;100.00;103560.00;5113334;28;20040;-74
2023/02/14 00:32:27;;;;;;;24.52;14.90;;;;;;;-1.22;100.00;103557.38;5113411;28;20096;-74
2023/02/14 00:34:52;;;;;;;29.50;15.95;;;;;;;-1.25;100.00;103552.16;5111885;28;20024;-75
2023/02/14 00:37:17;;;;;;;30.70;16.10;;;;;;;-1.29;100.00;103545.16;5113288;28;20042;-74
2023/02/14 00:39:43;;;;;;;28.00;15.63;;;;;;;-1.32;100.00;103556.47;5113163;28;20068;-74
2023/02/14 00:42:08;;;;;;;28.95;15.63;;;;;;;-1.34;100.00;103546.91;5113541;28;20152;-74
2023/02/14 00:44:33;;;;;;;28.65;16.88;;;;;;;-1.36;100.00;103548.63;5112393;28;20070;-75
2023/02/14 00:46:59;;;;;;;30.60;15.70;;;;;;;-1.39;100.00;103548.63;5113079;28;20036;-73
2023/02/14 00:49:24;;;;;;;27.98;15.60;;;;;;;-1.40;100.00;103549.47;5113497;28;20035;-73
2023/02/14 00:51:49;;;;;;;27.00;16.00;;;;;;;-1.40;100.00;103539.03;5112976;28;20028;-73
2023/02/14 00:54:15;;;;;;;31.38;17.80;;;;;;;-1.40;100.00;103545.16;5113026;28;20110;-74
2023/02/14 00:56:40;;;;;;;29.23;16.13;;;;;;;-1.42;100.00;103539.03;5113431;28;20607;-75
2023/02/14 00:59:06;;;;;;;33.72;15.75;;;;;;;-1.45;100.00;103537.31;5113358;28;20055;-74
2023/02/14 01:01:31;;;;;;;32.22;16.83;;;;;;;-1.50;100.00;103535.53;5113283;28;20467;-73
2023/02/14 01:03:57;;;;;;;29.75;16.42;;;;;;;-1.53;100.00;103533.78;5113010;28;20482;-74
2023/02/14 01:06:23;;;;;;;26.83;15.55;;;;;;;-1.54;100.00;103539.00;5112995;28;20118;-74
2023/02/14 01:08:48;;;;;;;29.15;15.07;;;;;;;-1.57;100.00;103531.16;5112921;28;20053;-75
2023/02/14 01:11:17;;;;;;;31.63;15.93;;;;;;;-1.63;100.00;103532.91;5113454;28;20044;-74
2023/02/14 01:13:43;;;;;;;28.25;15.10;;;;;;;-1.65;100.00;103529.38;5113460;28;20152;-76
2023/02/14 01:16:15;;;;;;;29.08;15.73;;;;;;;-1.66;100.00;103532.84;5101121;28;20028;-75
2023/02/14 01:18:42;;;;;;;29.42;15.57;;;;;;;-1.67;100.00;103528.50;5114204;28;20059;-74
2023/02/14 01:21:14;;;;;;;29.65;15.00;;;;;;;-1.66;100.00;103525.00;5112276;28;20040;-74
2023/02/14 01:23:40;;;;;;;25.67;14.52;;;;;;;-1.65;100.00;103536.34;5113484;28;20028;-72
2023/02/14 01:26:06;;;;;;;26.02;14.57;;;;;;;-1.64;100.00;103532.88;5112523;28;20038;-73
2023/02/14 01:28:32;;;;;;;25.58;15.50;;;;;;;-1.65;100.00;103525.91;5113240;28;20031;-78
2023/02/14 01:31:03;;;;;;;25.48;14.30;;;;;;;-1.66;100.00;103532.00;5095412;28;20463;-79
2023/02/14 01:33:29;;;;;;;24.17;14.18;;;;;;;-1.66;100.00;103532.00;5113829;28;20027;-79
2023/02/14 01:35:54;;;;;;;27.63;13.88;;;;;;;-1.67;100.00;103530.22;5112791;28;20109;-78
2023/02/14 01:38:20;;;;;;;22.48;12.90;;;;;;;-1.69;100.00;103525.00;5114161;28;20110;-79
2023/02/14 01:40:45;;;;;;;21.17;13.63;;;;;;;-1.67;100.00;103530.22;5113572;28;20422;-79
2023/02/14 01:43:14;;;;;;;27.85;14.50;;;;;;;-1.67;100.00;103527.63;5113722;28;20054;-79
2023/02/14 01:45:40;;;;;;;27.48;14.13;;;;;;;-1.70;100.00;103528.50;5113669;28;20046;-80
2023/02/14 01:48:06;;;;;;;27.88;14.73;;;;;;;-1.67;100.00;103523.28;5113607;28;20028;-79
2023/02/14 01:50:42;;;;;;;29.70;15.48;;;;;;;-1.67;100.00;103523.28;5113527;28;20119;-79
2023/02/14 01:53:14;;;;;;;27.30;14.88;;;;;;;-1.68;100.00;103526.75;5113394;28;20108;-79
2023/02/14 01:55:45;;;;;;;23.40;14.27;;;;;;;-1.70;100.00;103528.50;5113375;28;20115;-80
2023/02/14 01:58:23;;;;;;;25.63;14.38;;;;;;;-1.72;100.00;103527.59;5113513;28;20035;-79
2023/02/14 02:00:58;;;;;;;25.17;14.63;;;;;;;-1.71;100.00;103524.13;5113337;28;20023;-79
2023/02/14 02:03:40;;;;;;;29.85;16.35;;;;;;;-1.66;100.00;103525.00;5113130;28;20088;-78
2023/02/14 02:06:05;;;;;;;32.55;17.88;;;;;;;-1.63;100.00;103525.06;5113790;28;20077;-79
2023/02/14 02:08:35;;;;;;;29.17;14.40;;;;;;;-1.65;100.00;103528.53;5117359;28;20024;-79
2023/02/14 02:11:01;;;;;;;31.60;16.83;;;;;;;-1.70;100.00;103527.63;5116779;28;20454;-79
2023/02/14 02:13:26;;;;;;;31.63;16.40;;;;;;;-1.76;100.00;103523.25;5117282;28;20100;-79
2023/02/14 02:16:04;;;;;;;29.98;16.35;;;;;;;-1.81;100.00;103524.97;5115777;28;20028;-80
2023/02/14 02:19:11;;;;;;;30.33;15.85;;;;;;;-1.86;100.00;103524.94;5117383;28;20031;-79
2023/02/14 02:22:11;;;;;;;28.75;14.80;;;;;;;-1.91;100.00;103528.41;5059952;28;20096;-79
2023/02/14 02:24:48;;;;;;;33.97;16.45;;;;;;;-1.98;100.00;103524.91;5117545;28;20032;-78
2023/02/14 02:28:07;;;;;;;29.80;14.70;;;;;;;-2.02;100.00;103526.59;5117425;28;20089;-79
2023/02/14 02:30:38;;;;;;;29.70;14.95;;;;;;;-2.05;100.00;103516.16;5033797;28;20041;-79
2023/02/14 02:33:32;;;;;;;25.85;14.48;;;;;;;-2.06;100.00;103519.66;5113707;28;20071;-79
2023/02/14 02:36:35;;;;;;;32.58;15.43;;;;;;;-2.11;100.00;103520.47;5116909;28;20032;-79
2023/02/14 02:39:30;;;;;;;27.45;14.45;;;;;;;-2.18;100.00;103510.00;5115366;28;20513;-79
2023/02/14 02:42:23;;;;;;;26.13;14.07;;;;;;;-2.20;100.00;103510.84;5117580;28;20020;-80
2023/02/14 02:44:49;;;;;;;28.08;14.73;;;;;;;-2.23;100.00;103508.22;5116478;28;20051;-79
2023/02/14 02:47:34;;;;;;;27.85;14.45;;;;;;;-2.27;100.00;103509.94;5116361;28;20036;-79
2023/02/14 02:53:31;;;;;;;26.77;14.40;;;;;;;-2.28;100.00;103512.53;5116785;28;20132;-79
2023/02/14 02:59:16;;;;;;;23.38;13.35;;;;;;;-2.34;100.00;103496.00;5116841;28;20042;-80
2023/02/14 03:01:46;;;;;;;23.92;13.75;;;;;;;-2.33;100.00;103499.47;5114561;28;20027;-79
2023/02/14 03:06:58;;;;;;;25.08;14.77;;;;;;;-2.35;100.00;103496.84;5115910;28;20062;-79
2023/02/14 03:09:27;;;;;;;28.80;13.85;;;;;;;-2.35;100.00;103493.38;5115996;28;20460;-79
2023/02/14 03:12:30;;;;;;;26.02;14.38;;;;;;;-2.37;100.00;103493.38;5116027;28;20482;-79
2023/02/14 03:15:11;;;;;;;30.55;15.48;;;;;;;-2.34;100.00;103497.75;5083909;28;20043;-78
2023/02/14 03:17:50;;;;;;;31.70;16.40;;;;;;;-2.29;100.00;103501.25;5116100;28;20447;-78
2023/02/14 03:20:34;;;;;;;27.58;14.82;;;;;;;-2.29;100.00;103495.16;5115447;27;20083;-79
2023/02/14 03:23:11;;;;;;;27.83;14.30;;;;;;;-2.33;100.00;103496.84;5116016;28;20039;-78
2023/02/14 03:25:58;;;;;;;30.73;15.38;;;;;;;-2.37;100.00;103501.19;5115550;28;20038;-78
2023/02/14 03:29:02;;;;;;;26.58;14.52;;;;;;;-2.42;100.00;103504.63;5115957;28;20043;-78
2023/02/14 03:31:37;;;;;;;28.35;14.48;;;;;;;-2.45;100.00;103500.25;5115777;28;20096;-79
2023/02/14 03:34:17;;;;;;;26.50;14.48;;;;;;;-2.47;100.00;103502.00;5115512;28;20023;-78
2023/02/14 03:37:08;;;;;;;26.45;14.88;;;;;;;-2.49;100.00;103501.97;5115967;28;20084;-78
2023/02/14 03:39:42;;;;;;;29.20;15.52;;;;;;;-2.49;100.00;103495.91;5115617;28;20055;-78
2023/02/14 03:42:20;;;;;;;27.35;14.40;;;;;;;-2.51;100.00;103495.91;5115795;28;20032;-78
2023/02/14 03:44:48;;;;;;;31.88;15.30;;;;;;;-2.54;100.00;103495.00;5115413;28;20460;-77
2023/02/14 03:47:17;;;;;;;32.75;16.50;;;;;;;-2.57;100.00;103490.63;5115275;28;20064;-78
2023/02/14 03:49:49;;;;;;;32.53;16.30;;;;;;;-2.55;100.00;103493.25;5114963;28;20024;-79
2023/02/14 03:52:15;;;;;;;29.52;15.43;;;;;;;-2.56;100.00;103489.75;5115788;28;20020;-78
2023/02/14 03:54:44;;;;;;;28.42;14.45;;;;;;;-2.58;100.00;103481.06;5116238;28;20467;-78
2023/02/14 03:57:25;;;;;;;28.15;15.45;;;;;;;-2.61;100.00;103487.97;5120066;28;20028;-77
2023/02/14 03:59:52;;;;;;;20.60;12.43;;;;;;;-2.63;100.00;103482.75;5121479;28;20058;-77
2023/02/14 04:02:24;;;;;;;22.38;12.65;;;;;;;-2.66;100.00;103483.63;5115747;28;20027;-78
2023/02/14 04:04:51;;;;;;;18.30;12.00;;;;;;;-2.67;100.00;103481.00;5114186;28;20119;-78
2023/02/14 04:07:22;;;;;;;18.77;11.48;;;;;;;-2.67;100.00;103483.63;5113775;28;20511;-78
2023/02/14 04:09:48;;;;;;;18.25;11.38;;;;;;;-2.68;100.00;103474.03;5113948;28;20066;-78
2023/02/14 04:12:15;;;;;;;21.98;12.05;;;;;;;-2.70;100.00;103476.63;5115090;28;20059;-78
2023/02/14 04:14:41;;;;;;;18.92;11.65;;;;;;;-2.67;100.00;103478.41;5114017;28;20398;-78
2023/02/14 04:19:51;;;;;;;18.65;10.77;;;;;;;-2.68;100.00;103482.72;5114579;28;20125;-78
2023/02/14 04:22:17;;;;;;;29.00;14.27;;;;;;;-2.71;100.00;103480.09;5115921;28;20056;-78
2023/02/14 04:24:42;;;;;;;22.02;12.48;;;;;;;-2.69;100.00;103482.72;5114493;28;20479;-78
2023/02/14 04:27:11;;;;;;;20.02;12.23;;;;;;;-2.68;100.00;103484.47;5114574;28;20455;-78
2023/02/14 04:29:42;;;;;;;23.77;12.32;;;;;;;-2.70;100.00;103481.84;5114647;28;20353;-78
2023/02/14 04:32:10;;;;;;;21.55;11.52;;;;;;;-2.70;100.00;103483.59;5114324;28;20040;-78
2023/02/14 04:34:36;;;;;;;16.83;11.07;;;;;;;-2.73;100.00;103481.84;5114404;28;20464;-77
2023/02/14 04:37:02;;;;;;;18.50;11.30;;;;;;;-2.76;100.00;103481.81;5114434;28;20042;-77
2023/02/14 04:39:28;;;;;;;22.15;12.07;;;;;;;-2.79;100.00;103496.53;5114482;28;20111;-77
2023/02/14 04:41:53;;;;;;;19.23;11.02;;;;;;;-2.82;100.00;103481.78;5115008;28;20072;-77
2023/02/14 04:44:19;;;;;;;20.42;12.55;;;;;;;-2.84;100.00;103486.97;5114392;27;20053;-78
2023/02/14 04:46:44;;;;;;;17.38;10.73;;;;;;;-2.85;100.00;103494.78;5114306;28;20396;-78
2023/02/14 04:49:10;;;;;;;19.40;11.20;;;;;;;-2.86;100.00;103490.41;5113819;28;20383;-78
2023/02/14 04:51:35;;;;;;;17.55;10.73;;;;;;;-2.87;100.00;103489.53;5114513;28;20040;-78
2023/02/14 04:54:00;;;;;;;20.20;11.95;;;;;;;-2.87;100.00;103486.06;5114309;28;20096;-78
2023/02/14 04:56:26;;;;;;;19.08;11.45;;;;;;;-2.90;100.00;103488.63;5113805;28;20035;-78
2023/02/14 04:58:52;;;;;;;20.58;10.90;;;;;;;-2.89;100.00;103487.78;5113849;28;20472;-79
2023/02/14 05:01:18;;;;;;;16.98;10.57;;;;;;;-2.94;100.00;103487.75;5113788;28;20031;-78
2023/02/14 05:03:43;;;;;;;17.70;10.55;;;;;;;-2.94;100.00;103489.47;5112492;28;20042;-78
2023/02/14 05:06:09;;;;;;;15.52;10.90;;;;;;;-2.96;100.00;103486.84;5112706;28;20028;-79
2023/02/14 05:08:34;;;;;;;18.60;11.35;;;;;;;-2.95;100.00;103483.38;5113879;28;20039;-78
2023/02/14 05:10:59;;;;;;;18.30;10.80;;;;;;;-2.95;100.00;103485.13;5113950;28;20493;-78
2023/02/14 05:13:25;;;;;;;16.95;11.40;;;;;;;-2.97;100.00;103486.84;5112475;28;20415;-79
2023/02/14 05:15:50;;;;;;;15.38;10.63;;;;;;;-3.00;100.00;103482.50;5113846;28;20171;-78
2023/02/14 05:18:15;;;;;;;17.65;10.68;;;;;;;-3.01;100.00;103478.13;5112846;28;20135;-79
2023/02/14 05:20:41;;;;;;;18.77;10.07;;;;;;;-3.04;100.00;103484.19;5113727;28;20054;-78
2023/02/14 05:23:12;;;;;;;14.20;9.85;;;;;;;-3.05;100.00;103481.56;5112394;28;20063;-78
2023/02/14 05:25:38;;;;;;;19.52;10.40;;;;;;;-3.08;100.00;103477.19;5112565;28;20466;-78
2023/02/14 05:28:04;;;;;;;17.08;10.10;;;;;;;-3.11;100.00;103477.16;5113588;28;20027;-77
2023/02/14 05:30:29;;;;;;;14.82;9.48;;;;;;;-3.12;100.00;103477.16;5113882;28;20425;-77
2023/02/14 05:32:54;;;;;;;15.25;9.98;;;;;;;-3.13;100.00;103475.44;5113491;28;20091;-78
2023/02/14 05:35:20;;;;;;;15.00;10.50;;;;;;;-3.13;100.00;103475.44;5113486;28;20032;-78
2023/02/14 05:37:45;;;;;;;13.57;9.55;;;;;;;-3.15;100.00;103475.41;5113874;28;20118;-78
2023/02/14 05:40:12;;;;;;;15.38;10.35;;;;;;;-3.16;100.00;103475.38;5113432;28;20035;-77
2023/02/14 05:42:40;;;;;;;17.00;10.40;;;;;;;-3.16;100.00;103470.16;5116181;28;20031;-77
2023/02/14 05:45:06;;;;;;;15.52;9.32;;;;;;;-3.17;100.00;103461.47;5117934;28;20036;-77
2023/02/14 05:47:32;;;;;;;12.77;9.27;;;;;;;-3.17;100.00;103471.91;5116286;28;20085;-78
2023/02/14 05:49:57;;;;;;;16.58;10.52;;;;;;;-3.17;100.00;103471.91;5116413;28;20031;-78
2023/02/14 05:52:23;;;;;;;16.75;9.57;;;;;;;-3.18;100.00;103472.75;5117377;28;20414;-77
2023/02/14 05:54:48;;;;;;;16.27;10.75;;;;;;;-3.19;100.00;103469.28;5117438;28;20039;-78
2023/02/14 05:57:14;;;;;;;16.02;10.23;;;;;;;-3.19;100.00;103468.44;5117164;28;20118;-78
2023/02/14 05:59:39;;;;;;;18.52;11.45;;;;;;;-3.17;100.00;103471.03;5117546;28;20035;-77
2023/02/14 06:02:04;;;;;;;18.17;11.43;;;;;;;-3.19;100.00;103468.44;5117190;28;20123;-77
2023/02/14 06:04:30;;;;;;;17.88;10.77;;;;;;;-3.21;100.00;103463.19;5117282;28;20028;-78
2023/02/14 06:06:55;;;;;;;16.98;10.80;;;;;;;-3.22;100.00;103468.41;5117413;28;20468;-77
2023/02/14 06:09:21;;;;;;;16.42;10.50;;;;;;;-3.21;100.00;103475.34;5116786;28;20040;-78
2023/02/14 06:11:46;;;;;;;18.25;10.55;;;;;;;-3.21;100.00;103468.41;5117033;28;20032;-78
2023/02/14 06:14:12;;;;;;;18.95;11.02;;;;;;;-3.20;100.00;103449.31;5117152;28;20070;-77
2023/02/14 06:16:37;;;;;;;20.17;11.02;;;;;;;-3.20;100.00;103461.47;5117388;28;20043;-78
2023/02/14 06:19:02;;;;;;;18.05;11.18;;;;;;;-3.20;100.00;103462.31;5116797;28;20459;-77
2023/02/14 06:21:28;;;;;;;17.33;11.27;;;;;;;-3.19;100.00;103460.63;5115114;28;20464;-77
2023/02/14 06:23:53;;;;;;;19.15;11.60;;;;;;;-3.20;100.00;103470.13;5116738;28;20028;-77
2023/02/14 06:26:18;;;;;;;17.65;11.05;;;;;;;-3.23;100.00;103475.31;5117135;28;20028;-77
2023/02/14 06:28:44;;;;;;;15.75;10.38;;;;;;;-3.25;100.00;103469.22;5115422;28;20488;-77
2023/02/14 06:31:15;;;;;;;18.23;11.07;;;;;;;-3.28;100.00;103468.34;5116464;28;20469;-78
2023/02/14 06:33:41;;;;;;;16.42;10.90;;;;;;;-3.30;100.00;103470.03;5116751;28;20042;-77
2023/02/14 06:36:06;;;;;;;19.73;11.60;;;;;;;-3.31;100.00;103463.97;5115487;28;20458;-79
2023/02/14 06:38:32;;;;;;;16.52;11.27;;;;;;;-3.31;100.00;103461.38;5115224;28;20040;-81
2023/02/14 06:41:05;;;;;;;20.77;11.63;;;;;;;-3.32;100.00;103462.22;5116112;28;20046;-80
2023/02/14 06:43:31;;;;;;;21.15;11.68;;;;;;;-3.32;100.00;103462.22;5116315;28;20054;-78
2023/02/14 06:45:57;;;;;;;20.60;11.52;;;;;;;-3.33;100.00;103467.41;5116307;28;20468;-81
2023/02/14 06:48:22;;;;;;;22.25;11.60;;;;;;;-3.33;100.00;103463.06;5116576;28;20020;-78
2023/02/14 06:50:48;;;;;;;18.63;11.50;;;;;;;-3.32;100.00;103463.97;5116422;28;20102;-79
2023/02/14 06:53:13;;;;;;;19.98;11.45;;;;;;;-3.32;100.00;103466.56;5097528;28;20027;-79
2023/02/14 06:55:38;;;;;;;17.75;10.80;;;;;;;-3.31;100.00;103473.50;5115780;28;20039;-79
2023/02/14 06:58:04;;;;;;;18.40;10.88;;;;;;;-3.34;100.00;103469.16;5116483;28;20498;-80
2023/02/14 07:00:29;;;;;;;17.38;11.30;;;;;;;-3.34;100.00;103473.47;5097761;28;20035;-79
2023/02/14 07:02:55;;;;;;;20.65;10.80;;;;;;;-3.33;100.00;103473.47;5115792;28;20066;-79
2023/02/14 07:05:21;;;;;;;19.23;11.15;;;;;;;-3.29;100.00;103479.59;5115882;28;20035;-79
2023/02/14 07:07:46;;;;;;;19.58;12.48;;;;;;;-3.16;100.00;103489.28;5115765;28;20188;-76
2023/02/14 07:10:12;;;;;;;21.75;12.75;;;;;;;-3.02;100.00;103479.84;5115916;28;20031;-78
2023/02/14 07:12:40;;;;;;;19.48;12.80;;;;;;;-2.95;100.00;103490.34;5114223;28;20047;-76
2023/02/14 07:15:07;;;;;;;19.15;11.88;;;;;;;-2.98;100.00;103485.97;5114139;28;20051;-78
2023/02/14 07:17:32;;;;;;;19.30;11.02;;;;;;;-2.99;100.00;103486.81;5097368;28;20059;-77
2023/02/14 07:19:58;;;;;;;18.30;11.48;;;;;;;-3.01;100.00;103484.19;5115504;28;20176;-78
2023/02/14 07:22:23;;;;;;;19.83;12.48;;;;;;;-2.97;100.00;103489.44;5116241;28;20122;-77
2023/02/14 07:24:48;;;;;;;18.23;12.35;;;;;;;-2.96;100.00;103492.06;5114532;28;20035;-78
2023/02/14 07:27:14;;;;;;;17.92;11.75;;;;;;;-2.94;100.00;103489.47;5115589;27;20341;-77
2023/02/14 07:29:39;;;;;;;22.42;13.82;;;;;;;-2.93;100.00;103489.47;5115186;28;20114;-77
2023/02/14 07:32:05;;;;;;;21.27;12.55;;;;;;;-2.91;100.00;103485.16;5115055;28;20349;-77
2023/02/14 07:34:30;;;;;;;18.48;11.88;;;;;;;-2.89;100.00;103474.75;5114359;28;20036;-77
2023/02/14 07:36:55;;;;;;;17.45;10.77;;;;;;;-2.85;100.00;103489.56;5115397;28;20027;-78
2023/02/14 07:39:21;;;;;;;24.90;14.43;;;;;;;-2.80;100.00;103484.38;5115070;28;20469;-78
2023/02/14 07:41:46;;;;;;;24.98;14.15;;;;;;;-2.71;100.00;103487.06;5115190;28;20042;-77
2023/02/14 07:44:12;;;;;;;24.75;15.38;;;;;;;-2.64;100.00;103482.75;5113499;28;20388;-76
2023/02/14 07:46:37;;;;;;;24.50;14.90;;;;;;;-2.57;100.00;103482.78;5115147;28;20039;-77
2023/02/14 07:49:02;;;;;;;26.02;15.00;;;;;;;-2.48;100.00;103489.81;5114543;28;20039;-76
2023/02/14 07:51:28;;;;;;;29.10;15.45;;;;;;;-2.41;100.00;103490.75;5114999;28;20383;-76
2023/02/14 07:53:53;;;;;;;25.80;15.75;;;;;;;-2.29;100.00;103487.34;5114987;28;20112;-77
2023/02/14 07:56:18;;;;;;;23.08;15.23;;;;;;;-2.20;100.00;103480.41;5115017;28;20468;-77
2023/02/14 07:58:45;;;;;;;26.75;17.15;;;;;;;-2.09;100.00;103488.31;5113264;28;20388;-76
2023/02/14 08:01:11;;;;;;;29.33;17.17;;;;;;;-1.97;100.00;103480.53;5115052;28;20485;-77
2023/02/14 08:03:36;;;;;;;28.60;16.20;;;;;;;-1.86;100.00;103483.19;5114166;27;20111;-77
2023/02/14 08:06:02;;;;;;;27.15;16.83;;;;;;;-1.71;100.00;103489.34;5114203;28;20031;-77
2023/02/14 08:08:30;;;;;;;24.08;15.65;;;;;;;-1.58;100.00;103491.13;5114285;28;20029;-77
2023/02/14 08:10:55;;;;;;;26.52;15.77;;;;;;;-1.45;100.00;103484.16;5114383;28;20352;-76
2023/02/14 08:13:21;;;;;;;31.73;17.70;;;;;;;-1.31;100.00;103482.47;5114271;28;20478;-77
2023/02/14 08:16:05;;;;;;;31.00;17.70;;;;;;;-1.17;100.00;103482.47;5114697;28;20054;-78
2023/02/14 08:18:41;;;;;;;32.38;17.67;;;;;;;-1.00;100.00;103479.91;5114845;28;20493;-78
2023/02/14 08:21:09;;;;;;;31.88;18.08;;;;;;;-0.84;100.00;103479.88;5114213;28;20438;-78
2023/02/14 08:23:35;;;;;;;32.03;17.85;;;;;;;-0.68;100.00;103481.63;5114211;28;20440;-78
2023/02/14 08:26:01;;;;;;;42.25;22.60;;;;;;;-0.48;100.00;103483.34;5114267;28;20418;-78
2023/02/14 08:28:26;;;;;;;45.60;23.20;;;;;;;-0.22;100.00;103485.91;5114251;28;20034;-78
2023/02/14 08:30:52;;;;;;;48.35;25.55;;;;;;;0.01;100.00;103487.56;5114255;28;20047;-78
2023/02/14 08:33:19;;;;;;;51.88;25.27;;;;;;;0.20;100.00;103489.22;5114429;28;20524;-78
2023/02/14 08:35:44;;;;;;;56.80;28.38;;;;;;;0.41;100.00;103495.25;5114088;28;20127;-78
2023/02/14 08:38:10;;;;;;;51.72;26.88;;;;;;;0.59;100.00;103487.25;5114577;28;20114;-78
2023/02/14 08:40:36;;;;;;;54.45;29.05;;;;;;;0.79;100.00;103478.41;5114534;28;20035;-77
2023/02/14 08:43:03;;;;;;;55.55;27.83;;;;;;;0.97;100.00;103483.53;5114404;27;20061;-78
2023/02/14 08:45:28;;;;;;;54.78;26.88;;;;;;;1.14;100.00;103485.13;5112898;28;20123;-78
2023/02/14 08:47:54;;;;;;;55.25;27.95;;;;;;;1.32;100.00;103479.72;5114085;28;20071;-78
2023/02/14 08:50:19;;;;;;;50.65;27.45;;;;;;;1.48;100.00;103485.69;5114183;28;20055;-78
2023/02/14 08:52:44;;;;;;;54.72;27.58;;;;;;;1.64;100.00;103483.75;5113017;28;20036;-79
2023/02/14 08:55:12;;;;;;;57.92;29.67;;;;;;;1.81;100.00;103487.94;5114541;28;20027;-78
2023/02/14 08:57:37;;;;;;;59.83;28.38;;;;;;;1.96;100.00;103482.53;5112773;28;20034;-77
2023/02/14 09:00:04;;;;;;;54.10;28.55;;;;;;;2.10;100.00;103480.59;5113823;28;20028;-77
2023/02/14 09:02:29;;;;;;;59.58;29.23;;;;;;;2.26;100.00;103485.66;5114043;27;20031;-76
2023/02/14 09:04:55;;;;;;;60.05;29.75;;;;;;;2.39;100.00;103484.63;5113816;28;20028;-76
2023/02/14 09:07:20;;;;;;;65.75;30.58;;;;;;;2.57;100.00;103480.00;5114177;28;20031;-75
2023/02/14 09:09:46;;;;;;;80.70;34.45;;;;;;;2.72;100.00;103481.53;5113703;28;20083;-76
2023/02/14 09:12:11;;;;;;;66.18;33.03;;;;;;;2.87;100.00;103486.53;5112658;28;20100;-76
2023/02/14 09:14:39;;;;;;;72.65;33.92;;;;;;;3.03;100.00;103488.91;5114421;28;20039;-75
2023/02/14 09:17:06;;;;;;;77.95;35.35;;;;;;;3.22;100.00;103484.22;5115489;28;20054;-76
2023/02/14 09:19:32;;;;;;;70.78;32.95;;;;;;;3.38;100.00;103477.78;5115924;28;20109;-76
2023/02/14 09:21:58;;;;;;;71.03;34.30;;;;;;;3.51;100.00;103478.44;5112023;28;20050;-80
2023/02/14 09:24:23;;;;;;;64.30;33.55;;;;;;;3.63;100.00;103472.09;5112050;28;20048;-76
2023/02/14 09:26:48;;;;;;;65.85;32.72;;;;;;;3.75;100.00;103473.56;5113345;28;20071;-76
2023/02/14 09:29:15;;;;;;;70.15;34.38;;;;;;;3.93;100.00;103469.72;5113382;28;20490;-76
2023/02/14 09:31:40;;;;;;;63.13;33.13;;;;;;;4.13;100.00;103472.78;5112422;28;20027;-77
2023/02/14 09:39:35;;;;;;;63.42;33.17;;;;;;;4.80;100.00;103466.03;5114129;28;20093;-79
2023/02/14 09:42:08;;;;;;;58.75;32.10;;;;;;;5.13;100.00;103469.59;5113630;28;20024;-78
2023/02/14 09:45:00;;;;;;;58.90;31.48;;;;;;;5.58;100.00;103476.34;5114092;28;20418;-78
2023/02/14 09:47:32;;;;;;;54.40;29.92;;;;;;;6.13;100.00;103466.00;5107813;28;20206;-80
2023/02/14 09:49:58;;;;;;;53.88;29.83;;;;;;;6.68;100.00;103472.22;5113811;28;20043;-81
2023/02/14 09:52:29;;;;;;;55.00;29.33;;;;;;;7.41;100.00;103467.16;5113178;28;20042;-80
2023/02/14 09:54:58;;;;;;;50.58;29.35;;;;;;;8.52;100.00;103464.81;5113849;28;20114;-81
2023/02/14 09:57:32;;;;;;;48.17;28.27;;;;;;;9.58;100.00;103470.13;5113544;28;20058;-80
2023/02/14 10:00:28;;;;;;;52.78;27.77;;;;;;;10.87;100.00;103457.88;5113752;28;20034;-81
2023/02/14 10:03:14;;;;;;;40.67;26.65;;;;;;;11.64;100.00;103460.09;5113865;28;20034;-82
2023/02/14 10:05:52;;;;;;;45.65;27.80;;;;;;;12.70;100.00;103461.38;5113955;28;20056;-80
2023/02/14 10:08:41;;;;;;;46.42;28.13;;;;;;;13.18;100.00;103458.56;5113253;28;20168;-80
2023/02/14 10:11:10;;;;;;;39.90;26.30;;;;;;;13.84;98.76;103463.47;5113307;28;20035;-80
2023/02/14 10:13:47;;;;;;;44.17;25.80;;;;;;;14.33;87.53;103455.00;5111813;28;20031;-80
2023/02/14 10:16:45;;;;;;;48.00;26.55;;;;;;;14.70;80.51;103460.63;5113564;28;20062;-80
2023/02/14 10:19:19;;;;;;;40.30;26.33;;;;;;;15.30;71.84;103451.19;5024106;28;20045;-80
2023/02/14 10:21:56;;;;;;;42.70;25.33;;;;;;;15.40;71.30;103450.53;5112066;28;20055;-80
2023/02/14 10:24:28;;;;;;;40.38;25.73;;;;;;;15.36;67.75;103449.03;5114151;28;20048;-80
2023/02/14 10:27:27;;;;;;;37.60;26.25;;;;;;;15.40;71.31;103443.34;5113468;28;20063;-80
2023/02/14 10:29:53;;;;;;;37.47;25.75;;;;;;;15.43;67.49;103445.81;5115274;28;20168;-80
2023/02/14 10:32:27;;;;;;;41.13;26.30;;;;;;;15.54;65.37;103447.75;5116754;28;20110;-81
2023/02/14 10:34:55;;;;;;;44.53;26.05;;;;;;;15.76;61.90;103449.75;5117546;28;20058;-80
2023/02/14 10:37:58;;;;;;;41.65;26.80;;;;;;;15.22;67.28;103441.97;5116877;28;20028;-81
2023/02/14 10:40:54;;;;;;;39.88;26.25;;;;;;;15.09;66.97;103445.50;5120672;28;20433;-81
2023/02/14 10:43:22;;;;;;;42.42;27.45;;;;;;;14.79;72.95;103451.97;5116428;28;20044;-80
2023/02/14 10:46:10;;;;;;;39.60;26.95;;;;;;;15.10;69.25;103440.97;5117917;28;20409;-81
2023/02/14 10:48:56;;;;;;;37.85;25.58;;;;;;;15.29;67.79;103436.06;5116201;28;20031;-81
2023/02/14 10:51:32;;;;;;;39.45;26.58;;;;;;;15.63;68.92;103431.00;5116533;28;20026;-81
2023/02/14 10:54:30;;;;;;;38.58;25.05;;;;;;;16.13;65.84;103432.84;5116675;27;20428;-81
2023/02/14 10:57:10;;;;;;;41.25;25.85;;;;;;;15.72;63.00;103421.44;5070790;28;20040;-81
2023/02/14 10:59:53;;;;;;;39.03;26.70;;;;;;;15.15;68.14;103420.06;5116872;28;20028;-81
2023/02/14 11:02:23;;;;;;;43.72;24.80;;;;;;;14.65;75.46;103429.75;5116486;28;20036;-80
2023/02/14 11:04:49;;;;;;;41.00;25.77;;;;;;;14.66;74.36;103418.94;5116157;27;20138;-80
2023/02/14 11:07:17;;;;;;;41.30;25.75;;;;;;;14.65;72.57;103427.06;5116299;28;20468;-80
2023/02/14 11:09:43;;;;;;;38.88;25.48;;;;;;;14.23;76.89;103421.75;5116602;27;20061;-80
2023/02/14 11:12:09;;;;;;;40.55;26.30;;;;;;;13.96;81.77;103419.91;5116001;28;20510;-80
2023/02/14 11:14:39;;;;;;;43.20;27.10;;;;;;;13.82;85.11;103417.22;5116399;28;20034;-80
2023/02/14 11:17:29;;;;;;;39.20;26.00;;;;;;;13.72;82.52;103415.16;5116452;28;20054;-81
2023/02/14 11:20:12;;;;;;;39.15;25.63;;;;;;;13.56;88.44;103409.03;5117401;28;20038;-79
2023/02/14 11:22:38;;;;;;;37.20;25.80;;;;;;;13.39;89.63;103402.94;5119614;27;20056;-80
2023/02/14 11:25:19;;;;;;;47.72;27.58;;;;;;;13.16;94.79;103398.09;5116189;28;20115;-80
2023/02/14 11:27:48;;;;;;;;;;;;;;;12.77;98.22;103400.41;5116676;28;20071;-79
2023/02/14 11:30:23;;;;;;;39.45;25.20;;;;;;;12.45;100.00;103404.94;5116357;28;20067;-80
2023/02/14 11:32:53;;;;;;;41.40;25.80;;;;;;;11.98;100.00;103398.72;5115881;28;20023;-79
2023/02/14 11:35:23;;;;;;;49.08;28.02;;;;;;;11.70;100.00;103396.69;5115738;28;20035;-79